Time;durP1;ratioP1;P1;durP2;ratioP2;P2;SDS_P1;SDS_P2;PMS_P1;PMS_P2;Temp;Humidity;BMP_temperature;BMP_pressure;BME280_temperature;BME280_humidity;BME280_pressure;Samples;Min_cycle;Max_cycle;Signal;HPM_P1;HPM_P2
2022/08/24 00:02:01;;;;;;;4.90;2.90;;;;;;;;;;5050814;28;20029;-60
2022/08/24 00:04:27;;;;;;;6.20;3.05;;;;;;;;;;5052195;28;20832;-60
2022/08/24 00:06:53;;;;;;;6.35;3.10;;;;;;;;;;5050643;28;20044;-60
2022/08/24 00:09:19;;;;;;;4.55;2.97;;;;;;;;;;5051358;28;20048;-60
2022/08/24 00:11:46;;;;;;;10.45;2.85;;;;;;;;;;5050400;28;20487;-60
2022/08/24 00:14:12;;;;;;;8.70;2.88;;;;;;;;;;5052907;28;20032;-60
2022/08/24 00:16:38;;;;;;;4.22;2.80;;;;;;;;;;5050262;28;20032;-60
2022/08/24 00:19:04;;;;;;;8.60;3.22;;;;;;;;;;5051225;28;20035;-60
2022/08/24 00:21:30;;;;;;;6.55;2.85;;;;;;;;;;5047192;28;20044;-60
2022/08/24 00:23:56;;;;;;;7.53;3.47;;;;;;;;;;5043947;28;20060;-60
2022/08/24 00:26:22;;;;;;;5.63;2.50;;;;;;;;;;5050356;28;20036;-59
2022/08/24 00:28:48;;;;;;;4.32;3.15;;;;;;;;;;5050636;28;20037;-60
2022/08/24 00:31:14;;;;;;;5.70;3.00;;;;;;;;;;5052499;28;20029;-60
2022/08/24 00:33:40;;;;;;;9.93;3.42;;;;;;;;;;5052686;28;20028;-60
2022/08/24 00:36:07;;;;;;;3.65;2.53;;;;;;;;;;5051911;28;20025;-60
2022/08/24 00:38:34;;;;;;;6.00;3.20;;;;;;;;;;5052022;28;20025;-60
2022/08/24 00:41:00;;;;;;;4.43;3.08;;;;;;;;;;5048100;28;20110;-60
2022/08/24 00:43:26;;;;;;;6.00;3.13;;;;;;;;;;5050307;28;20040;-60
2022/08/24 00:46:07;;;;;;;6.55;3.08;;;;;;;;;;5052536;28;20029;-60
2022/08/24 00:48:34;;;;;;;4.60;2.60;;;;;;;;;;5051145;28;20028;-60
2022/08/24 00:51:04;;;;;;;8.07;2.97;;;;;;;;;;5051253;28;20112;-60
2022/08/24 00:53:35;;;;;;;7.32;3.45;;;;;;;;;;5050195;28;20037;-60
2022/08/24 00:56:04;;;;;;;4.35;3.42;;;;;;;;;;5048668;28;20079;-60
2022/08/24 00:58:35;;;;;;;6.60;3.13;;;;;;;;;;5048833;28;20033;-60
2022/08/24 01:01:02;;;;;;;8.50;3.50;;;;;;;;;;5050083;28;20037;-60
2022/08/24 01:03:29;;;;;;;5.50;3.28;;;;;;;;;;5049272;28;20473;-60
2022/08/24 01:05:55;;;;;;;5.43;3.08;;;;;;;;;;5051403;28;20029;-60
2022/08/24 01:08:22;;;;;;;5.97;3.10;;;;;;;;;;5050441;28;20075;-60
2022/08/24 01:10:50;;;;;;;8.25;3.15;;;;;;;;;;5050988;28;20492;-60
2022/08/24 01:13:17;;;;;;;5.80;3.58;;;;;;;;;;5050979;28;20037;-60
2022/08/24 01:15:45;;;;;;;6.43;3.70;;;;;;;;;;5050767;28;20112;-60
2022/08/24 01:21:05;;;;;;;7.18;3.00;;;;;;;;;;5050534;28;20093;-60
2022/08/24 01:23:31;;;;;;;;;;;;;;;;;;5049866;28;20245;-60
2022/08/24 01:25:57;;;;;;;7.90;3.22;;;;;;;;;;5051243;28;19960;-60
2022/08/24 01:28:23;;;;;;;6.03;3.22;;;;;;;;;;5048512;28;20063;-59
2022/08/24 01:30:49;;;;;;;4.95;3.08;;;;;;;;;;5050917;28;20091;-60
2022/08/24 01:33:23;;;;;;;4.72;2.83;;;;;;;;;;5048833;28;20029;-59
2022/08/24 01:35:50;;;;;;;8.20;2.97;;;;;;;;;;5049756;28;20485;-60
2022/08/24 01:38:16;;;;;;;4.70;2.88;;;;;;;;;;5049078;28;20036;-60
2022/08/24 01:40:46;;;;;;;4.90;3.38;;;;;;;;;;5049402;28;20104;-60
2022/08/24 01:43:13;;;;;;;7.53;3.10;;;;;;;;;;5048077;28;20027;-60
2022/08/24 01:45:40;;;;;;;6.65;3.28;;;;;;;;;;5051820;28;20056;-60
2022/08/24 01:48:06;;;;;;;5.75;3.40;;;;;;;;;;5048877;28;20029;-60
2022/08/24 01:50:32;;;;;;;7.43;3.40;;;;;;;;;;5048598;28;20095;-60
2022/08/24 01:53:01;;;;;;;5.57;3.03;;;;;;;;;;5050529;28;20361;-60
2022/08/24 01:55:27;;;;;;;6.53;3.20;;;;;;;;;;5050250;28;20033;-60
2022/08/24 01:57:53;;;;;;;4.45;3.20;;;;;;;;;;5050350;28;20534;-60
2022/08/24 02:00:19;;;;;;;7.40;3.50;;;;;;;;;;5048609;28;20021;-60
2022/08/24 02:02:45;;;;;;;5.47;2.53;;;;;;;;;;5049563;28;20384;-60
2022/08/24 02:05:12;;;;;;;5.93;2.70;;;;;;;;;;5050499;28;20107;-60
2022/08/24 02:07:38;;;;;;;4.75;2.88;;;;;;;;;;5047355;28;20095;-60
2022/08/24 02:10:06;;;;;;;4.88;2.60;;;;;;;;;;5049354;28;20049;-60
2022/08/24 02:12:32;;;;;;;4.15;2.92;;;;;;;;;;5049542;28;20025;-60
2022/08/24 02:14:59;;;;;;;4.28;2.85;;;;;;;;;;5050341;28;20087;-60
2022/08/24 02:17:25;;;;;;;6.75;2.95;;;;;;;;;;5048325;28;20021;-60
2022/08/24 02:19:51;;;;;;;6.20;2.78;;;;;;;;;;5050837;28;20029;-60
2022/08/24 02:22:17;;;;;;;7.00;3.72;;;;;;;;;;5049324;28;20108;-60
2022/08/24 02:24:43;;;;;;;7.45;3.42;;;;;;;;;;5045373;28;20032;-60
2022/08/24 02:27:09;;;;;;;7.05;3.22;;;;;;;;;;5048925;28;20492;-60
2022/08/24 02:29:35;;;;;;;5.47;3.47;;;;;;;;;;5050007;28;20025;-60
2022/08/24 02:32:01;;;;;;;4.68;3.22;;;;;;;;;;5049542;28;20037;-60
2022/08/24 02:34:27;;;;;;;4.22;3.25;;;;;;;;;;5052991;28;20029;-60
2022/08/24 02:36:53;;;;;;;6.13;3.00;;;;;;;;;;5053407;28;20041;-60
2022/08/24 02:39:19;;;;;;;6.32;3.15;;;;;;;;;;5052834;28;20032;-61
2022/08/24 02:41:45;;;;;;;9.20;3.90;;;;;;;;;;5045657;28;20607;-60
2022/08/24 02:44:11;;;;;;;6.75;3.53;;;;;;;;;;5052123;28;20072;-60
2022/08/24 02:46:37;;;;;;;5.75;3.70;;;;;;;;;;5064690;28;20473;-60
2022/08/24 02:49:04;;;;;;;7.00;3.60;;;;;;;;;;5054529;28;20704;-60
2022/08/24 02:51:31;;;;;;;8.80;4.45;;;;;;;;;;5052817;28;20029;-60
2022/08/24 02:54:01;;;;;;;6.85;4.55;;;;;;;;;;5054217;28;20043;-60
2022/08/24 02:56:30;;;;;;;7.43;4.35;;;;;;;;;;5051026;28;20025;-60
2022/08/24 02:58:57;;;;;;;7.22;4.63;;;;;;;;;;5051590;28;20362;-59
2022/08/24 03:01:23;;;;;;;11.80;6.18;;;;;;;;;;5053368;28;20037;-60
2022/08/24 03:03:49;;;;;;;14.25;7.55;;;;;;;;;;5053002;28;20156;-60
2022/08/24 03:06:16;;;;;;;15.02;6.38;;;;;;;;;;5043183;28;20115;-60
2022/08/24 03:08:43;;;;;;;10.60;6.22;;;;;;;;;;5053608;28;20136;-60
2022/08/24 03:11:09;;;;;;;10.57;7.22;;;;;;;;;;5054299;28;20426;-60
2022/08/24 03:13:36;;;;;;;11.35;7.00;;;;;;;;;;5050495;28;20111;-60
2022/08/24 03:16:02;;;;;;;15.05;8.35;;;;;;;;;;5052830;28;20061;-60
2022/08/24 03:18:28;;;;;;;13.40;6.28;;;;;;;;;;5053222;28;20057;-60
2022/08/24 03:20:55;;;;;;;12.65;5.38;;;;;;;;;;5052560;28;20103;-60
2022/08/24 03:23:22;;;;;;;6.75;4.53;;;;;;;;;;5048711;28;20502;-60
2022/08/24 03:25:48;;;;;;;10.85;5.30;;;;;;;;;;5051022;28;20391;-59
2022/08/24 03:28:14;;;;;;;9.73;4.55;;;;;;;;;;5051937;28;20515;-60
2022/08/24 03:30:42;;;;;;;9.00;4.70;;;;;;;;;;5049883;28;20033;-60
2022/08/24 03:33:08;;;;;;;8.45;4.75;;;;;;;;;;5051493;28;20447;-60
2022/08/24 03:35:34;;;;;;;12.10;6.18;;;;;;;;;;5051477;28;20037;-59
2022/08/24 03:38:00;;;;;;;7.13;4.57;;;;;;;;;;5051427;28;20108;-60
2022/08/24 03:40:27;;;;;;;8.18;5.03;;;;;;;;;;5051840;28;20476;-60
2022/08/24 03:42:53;;;;;;;6.95;3.90;;;;;;;;;;5051815;28;20021;-60
2022/08/24 03:45:20;;;;;;;7.55;4.93;;;;;;;;;;5050420;28;20043;-60
2022/08/24 03:47:46;;;;;;;11.95;4.78;;;;;;;;;;5051463;28;20583;-60
2022/08/24 03:50:13;;;;;;;5.05;4.22;;;;;;;;;;5051557;28;20056;-60
2022/08/24 03:52:40;;;;;;;8.43;4.28;;;;;;;;;;5052401;28;20025;-60
2022/08/24 03:55:07;;;;;;;13.32;5.00;;;;;;;;;;5051759;28;20162;-60
2022/08/24 03:57:33;;;;;;;15.63;5.75;;;;;;;;;;5050181;28;20108;-60
2022/08/24 04:00:00;;;;;;;22.27;6.53;;;;;;;;;;5053514;28;20028;-60
2022/08/24 04:02:26;;;;;;;18.70;7.25;;;;;;;;;;5051940;28;20028;-59
2022/08/24 04:04:52;;;;;;;20.50;7.95;;;;;;;;;;5051998;28;20025;-60
2022/08/24 04:07:18;;;;;;;22.85;9.23;;;;;;;;;;5049324;28;20029;-62
2022/08/24 04:09:44;;;;;;;24.08;8.75;;;;;;;;;;5051480;28;20033;-59
2022/08/24 04:12:10;;;;;;;25.65;9.85;;;;;;;;;;5048469;28;20075;-60
2022/08/24 04:14:37;;;;;;;21.58;9.15;;;;;;;;;;5049501;28;20033;-60
2022/08/24 04:17:03;;;;;;;23.80;9.63;;;;;;;;;;5044236;28;20029;-59
2022/08/24 04:19:29;;;;;;;27.77;10.68;;;;;;;;;;5050073;28;20029;-61
2022/08/24 04:21:58;;;;;;;28.60;10.57;;;;;;;;;;5044990;28;20489;-59
2022/08/24 04:24:24;;;;;;;21.00;8.55;;;;;;;;;;5044662;28;20036;-59
2022/08/24 04:26:50;;;;;;;27.23;9.60;;;;;;;;;;5044735;28;20032;-59
2022/08/24 04:29:18;;;;;;;21.67;9.38;;;;;;;;;;5048224;28;20040;-60
2022/08/24 04:31:44;;;;;;;24.73;10.43;;;;;;;;;;5048752;28;20029;-60
2022/08/24 04:34:11;;;;;;;27.00;10.35;;;;;;;;;;5039207;28;20511;-60
2022/08/24 04:36:38;;;;;;;22.50;10.15;;;;;;;;;;5047010;28;20112;-59
2022/08/24 04:39:04;;;;;;;22.45;9.00;;;;;;;;;;5044536;28;20032;-60
2022/08/24 04:41:30;;;;;;;27.73;10.88;;;;;;;;;;5049708;28;20020;-60
2022/08/24 04:43:58;;;;;;;22.40;10.02;;;;;;;;;;5047610;28;20036;-58
2022/08/24 04:46:24;;;;;;;20.23;9.90;;;;;;;;;;5045377;28;20068;-59
2022/08/24 04:48:50;;;;;;;25.98;10.80;;;;;;;;;;5047060;28;20079;-59
2022/08/24 04:51:17;;;;;;;27.75;11.45;;;;;;;;;;5046369;28;20041;-59
2022/08/24 04:53:43;;;;;;;22.38;10.18;;;;;;;;;;5049063;28;20473;-60
2022/08/24 04:56:10;;;;;;;21.90;9.65;;;;;;;;;;5043094;28;20025;-60
2022/08/24 04:58:36;;;;;;;21.65;9.68;;;;;;;;;;5046563;28;20025;-60
2022/08/24 05:01:06;;;;;;;20.75;9.57;;;;;;;;;;5046201;28;20032;-60
2022/08/24 05:03:32;;;;;;;17.02;8.57;;;;;;;;;;5047090;28;20025;-60
2022/08/24 05:05:58;;;;;;;18.27;8.18;;;;;;;;;;5046503;28;20032;-60
2022/08/24 05:08:24;;;;;;;18.92;8.60;;;;;;;;;;5048728;28;20044;-60
2022/08/24 05:10:50;;;;;;;20.42;8.60;;;;;;;;;;5047651;28;20044;-59
2022/08/24 05:13:16;;;;;;;24.08;9.60;;;;;;;;;;5044047;28;20029;-60
2022/08/24 05:15:44;;;;;;;23.25;9.65;;;;;;;;;;5046184;28;20039;-60
2022/08/24 05:18:12;;;;;;;23.48;10.52;;;;;;;;;;5047848;28;20019;-61
2022/08/24 05:20:46;;;;;;;23.83;10.00;;;;;;;;;;5047798;28;20032;-60
2022/08/24 05:23:12;;;;;;;27.33;9.90;;;;;;;;;;5050660;28;20027;-61
2022/08/24 05:25:39;;;;;;;20.42;9.50;;;;;;;;;;5047868;28;20065;-61
2022/08/24 05:28:06;;;;;;;24.33;10.88;;;;;;;;;;5050897;28;20029;-60
2022/08/24 05:30:32;;;;;;;20.55;9.75;;;;;;;;;;5047330;28;20467;-61
2022/08/24 05:32:58;;;;;;;18.02;9.20;;;;;;;;;;5049547;28;20037;-60
2022/08/24 05:35:24;;;;;;;25.33;10.98;;;;;;;;;;5041736;28;20028;-60
2022/08/24 05:37:50;;;;;;;18.73;9.80;;;;;;;;;;5050881;28;20025;-61
2022/08/24 05:40:18;;;;;;;26.52;10.30;;;;;;;;;;5050415;28;20032;-61
2022/08/24 05:42:43;;;;;;;21.50;9.85;;;;;;;;;;5050428;28;20025;-58
2022/08/24 05:45:10;;;;;;;19.90;10.25;;;;;;;;;;5047626;28;20032;-59
2022/08/24 05:47:36;;;;;;;22.80;10.60;;;;;;;;;;5049829;28;20468;-59
2022/08/24 05:50:02;;;;;;;16.90;9.15;;;;;;;;;;5050914;28;20100;-59
2022/08/24 05:52:28;;;;;;;23.60;10.65;;;;;;;;;;5047884;28;20391;-59
2022/08/24 05:54:56;;;;;;;20.60;10.85;;;;;;;;;;5050175;28;20032;-59
2022/08/24 05:57:23;;;;;;;23.60;11.07;;;;;;;;;;5050690;28;20029;-59
2022/08/24 05:59:49;;;;;;;26.08;11.95;;;;;;;;;;5049303;28;20021;-59
2022/08/24 06:02:16;;;;;;;24.75;11.13;;;;;;;;;;5048248;28;20025;-58
2022/08/24 06:04:42;;;;;;;21.10;10.15;;;;;;;;;;5049437;28;20466;-59
2022/08/24 06:07:09;;;;;;;16.65;9.80;;;;;;;;;;5050493;28;20040;-59
2022/08/24 06:09:35;;;;;;;17.75;9.70;;;;;;;;;;5052091;28;20059;-58
2022/08/24 06:12:01;;;;;;;21.23;9.82;;;;;;;;;;5053025;28;20033;-59
2022/08/24 06:14:27;;;;;;;22.35;10.85;;;;;;;;;;5053908;28;20162;-58
2022/08/24 06:16:53;;;;;;;18.25;10.38;;;;;;;;;;5053763;28;20146;-58
2022/08/24 06:19:19;;;;;;;17.20;9.00;;;;;;;;;;5053633;28;20021;-58
2022/08/24 06:21:47;;;;;;;18.48;9.88;;;;;;;;;;5053651;28;20037;-58
2022/08/24 06:24:16;;;;;;;19.92;10.27;;;;;;;;;;5052570;28;20110;-58
2022/08/24 06:29:27;;;;;;;22.15;11.00;;;;;;;;;;5045448;28;20090;-59
2022/08/24 06:31:53;;;;;;;20.60;10.15;;;;;;;;;;5053175;28;20089;-59
2022/08/24 06:34:19;;;;;;;20.02;9.60;;;;;;;;;;5051884;28;20092;-59
2022/08/24 06:36:46;;;;;;;17.58;10.35;;;;;;;;;;5051984;28;20067;-58
2022/08/24 06:39:12;;;;;;;21.02;11.15;;;;;;;;;;5055179;28;20048;-59
2022/08/24 06:41:39;;;;;;;16.08;9.18;;;;;;;;;;5051780;28;20029;-59
2022/08/24 06:44:06;;;;;;;20.23;9.98;;;;;;;;;;5047255;28;20048;-59
2022/08/24 06:46:32;;;;;;;20.33;10.95;;;;;;;;;;5053728;28;20043;-59
2022/08/24 06:48:58;;;;;;;20.30;10.25;;;;;;;;;;5054450;28;20053;-59
2022/08/24 06:51:25;;;;;;;21.65;11.40;;;;;;;;;;5052004;28;20028;-59
2022/08/24 06:53:51;;;;;;;24.05;11.43;;;;;;;;;;5054587;28;20043;-59
2022/08/24 06:56:18;;;;;;;19.30;9.88;;;;;;;;;;5051314;28;20017;-59
2022/08/24 06:58:44;;;;;;;27.27;11.35;;;;;;;;;;5050868;28;20099;-58
2022/08/24 07:01:15;;;;;;;23.05;11.30;;;;;;;;;;5052645;28;20148;-58
2022/08/24 07:03:41;;;;;;;30.27;13.48;;;;;;;;;;5050861;28;20482;-59
2022/08/24 07:06:07;;;;;;;26.75;12.65;;;;;;;;;;5050358;28;20506;-58
2022/08/24 07:08:33;;;;;;;27.05;11.82;;;;;;;;;;5046344;28;20051;-59
2022/08/24 07:10:59;;;;;;;29.20;12.82;;;;;;;;;;5053491;28;20047;-59
2022/08/24 07:13:25;;;;;;;27.58;12.02;;;;;;;;;;5052026;28;20122;-58
2022/08/24 07:15:52;;;;;;;26.67;11.40;;;;;;;;;;5047027;28;20091;-58
2022/08/24 07:18:18;;;;;;;27.77;11.65;;;;;;;;;;5045444;28;20041;-59
2022/08/24 07:20:44;;;;;;;29.65;11.98;;;;;;;;;;5049768;28;20059;-59
2022/08/24 07:23:13;;;;;;;33.38;12.02;;;;;;;;;;5050494;28;20453;-58
2022/08/24 07:25:39;;;;;;;23.02;11.55;;;;;;;;;;5051863;28;20029;-59
2022/08/24 07:28:05;;;;;;;22.25;10.45;;;;;;;;;;5051226;28;20039;-59
2022/08/24 07:30:31;;;;;;;23.60;11.50;;;;;;;;;;5049614;28;20111;-59
2022/08/24 07:32:57;;;;;;;25.52;12.10;;;;;;;;;;5051817;28;20052;-58
2022/08/24 07:35:24;;;;;;;22.23;11.52;;;;;;;;;;5051410;28;20481;-59
2022/08/24 07:37:50;;;;;;;22.83;12.20;;;;;;;;;;5049908;28;20025;-59
2022/08/24 07:40:17;;;;;;;28.00;13.95;;;;;;;;;;5053379;28;20495;-59
2022/08/24 07:42:46;;;;;;;26.50;14.45;;;;;;;;;;5049464;28;20029;-59
2022/08/24 07:45:12;;;;;;;26.02;13.93;;;;;;;;;;5049794;28;20029;-59
2022/08/24 07:47:38;;;;;;;25.23;12.40;;;;;;;;;;5052055;28;20031;-60
2022/08/24 07:50:05;;;;;;;23.17;13.20;;;;;;;;;;5051444;28;20025;-59
2022/08/24 07:52:31;;;;;;;25.00;12.93;;;;;;;;;;5051394;28;20013;-59
2022/08/24 07:54:57;;;;;;;25.00;12.57;;;;;;;;;;5050805;28;20106;-59
2022/08/24 07:57:23;;;;;;;24.45;12.20;;;;;;;;;;5049294;28;20375;-59
2022/08/24 07:59:49;;;;;;;23.23;11.05;;;;;;;;;;5051550;28;20060;-59
2022/08/24 08:02:15;;;;;;;26.27;12.90;;;;;;;;;;5049429;28;20342;-59
2022/08/24 08:04:42;;;;;;;26.30;11.63;;;;;;;;;;5051648;28;20032;-59
2022/08/24 08:07:08;;;;;;;20.67;10.95;;;;;;;;;;5051565;28;20498;-59
2022/08/24 08:09:36;;;;;;;17.92;10.38;;;;;;;;;;5051742;28;20094;-59
2022/08/24 08:12:02;;;;;;;25.17;11.32;;;;;;;;;;5049921;28;20362;-59
2022/08/24 08:14:28;;;;;;;19.13;10.90;;;;;;;;;;5051853;28;20094;-59
2022/08/24 08:16:54;;;;;;;19.88;10.40;;;;;;;;;;5049846;28;20029;-58
2022/08/24 08:19:20;;;;;;;19.65;10.77;;;;;;;;;;5050631;28;20021;-58
2022/08/24 08:24:34;;;;;;;21.42;10.20;;;;;;;;;;5050318;28;20060;-58
2022/08/24 08:27:00;;;;;;;21.40;10.50;;;;;;;;;;5048025;28;20057;-60
2022/08/24 08:29:26;;;;;;;17.45;9.93;;;;;;;;;;5050935;28;20130;-58
2022/08/24 08:31:52;;;;;;;16.23;10.05;;;;;;;;;;5051016;28;20048;-59
2022/08/24 08:34:18;;;;;;;22.63;11.15;;;;;;;;;;5050700;28;20089;-59
2022/08/24 08:36:44;;;;;;;28.05;11.57;;;;;;;;;;5049340;28;20102;-60
2022/08/24 08:39:11;;;;;;;16.13;9.38;;;;;;;;;;5050469;28;20025;-59
2022/08/24 08:41:52;;;;;;;19.27;9.68;;;;;;;;;;5049455;28;20097;-59
2022/08/24 08:44:38;;;;;;;17.48;9.40;;;;;;;;;;5049613;28;20465;-59
2022/08/24 08:47:11;;;;;;;19.35;9.93;;;;;;;;;;5050323;28;20025;-59
2022/08/24 08:49:52;;;;;;;15.02;9.38;;;;;;;;;;5050683;28;20035;-60
2022/08/24 08:52:30;;;;;;;16.23;9.27;;;;;;;;;;5051864;28;20040;-59
2022/08/24 08:54:59;;;;;;;18.70;10.85;;;;;;;;;;5041583;28;20029;-59
2022/08/24 08:57:25;;;;;;;16.60;10.15;;;;;;;;;;5050014;28;20102;-59
2022/08/24 08:59:51;;;;;;;19.65;9.88;;;;;;;;;;5048260;28;20072;-60
2022/08/24 09:02:33;;;;;;;16.42;9.57;;;;;;;;;;5051582;28;20492;-58
2022/08/24 09:05:09;;;;;;;15.93;8.80;;;;;;;;;;5051848;28;20112;-59
2022/08/24 09:07:44;;;;;;;15.82;9.55;;;;;;;;;;5051268;28;20033;-59
2022/08/24 09:10:25;;;;;;;15.27;8.13;;;;;;;;;;5047504;28;20051;-59
2022/08/24 09:12:54;;;;;;;13.15;7.82;;;;;;;;;;5044397;28;20178;-59
2022/08/24 09:15:28;;;;;;;15.60;8.55;;;;;;;;;;5048815;28;20389;-59
2022/08/24 09:18:10;;;;;;;16.58;7.97;;;;;;;;;;5051205;28;20032;-59
2022/08/24 09:20:42;;;;;;;16.52;8.48;;;;;;;;;;5051520;28;20025;-58
2022/08/24 09:23:14;;;;;;;12.25;7.53;;;;;;;;;;5047708;28;20037;-58
2022/08/24 09:25:48;;;;;;;15.15;7.78;;;;;;;;;;5051111;28;20634;-58
2022/08/24 09:28:33;;;;;;;14.13;8.00;;;;;;;;;;5049360;28;20112;-59
2022/08/24 09:31:14;;;;;;;17.33;7.22;;;;;;;;;;5046436;28;20108;-59
2022/08/24 09:33:59;;;;;;;12.02;7.22;;;;;;;;;;5050522;28;20120;-59
2022/08/24 09:36:34;;;;;;;14.50;7.93;;;;;;;;;;5046601;28;20505;-58
2022/08/24 09:39:05;;;;;;;10.48;6.97;;;;;;;;;;5050609;28;20032;-59
2022/08/24 09:41:50;;;;;;;11.50;6.75;;;;;;;;;;5050498;28;20035;-59
2022/08/24 09:44:19;;;;;;;13.50;6.65;;;;;;;;;;5051689;28;20021;-59
2022/08/24 09:47:06;;;;;;;13.02;7.28;;;;;;;;;;5051715;28;20108;-59
2022/08/24 09:49:39;;;;;;;12.93;7.18;;;;;;;;;;5048809;28;20033;-58
2022/08/24 09:52:25;;;;;;;15.13;7.22;;;;;;;;;;5051878;28;20029;-58
2022/08/24 09:54:59;;;;;;;12.10;7.20;;;;;;;;;;5051444;28;20553;-59
2022/08/24 09:57:30;;;;;;;16.60;8.35;;;;;;;;;;5051278;28;20033;-59
2022/08/24 10:00:12;;;;;;;10.45;7.03;;;;;;;;;;5048881;28;20031;-59
2022/08/24 10:02:56;;;;;;;10.75;6.63;;;;;;;;;;5051568;28;20033;-59
2022/08/24 10:05:22;;;;;;;11.70;6.93;;;;;;;;;;5043680;28;20490;-59
2022/08/24 10:07:50;;;;;;;13.27;6.85;;;;;;;;;;5050324;28;20075;-59
2022/08/24 10:10:16;;;;;;;11.65;6.18;;;;;;;;;;5050120;28;20119;-58
2022/08/24 10:12:54;;;;;;;13.90;7.28;;;;;;;;;;5047596;28;20025;-60
2022/08/24 10:15:26;;;;;;;13.55;6.65;;;;;;;;;;5047123;28;20096;-59
2022/08/24 10:18:11;;;;;;;11.70;7.38;;;;;;;;;;5050518;28;20036;-59
2022/08/24 10:20:57;;;;;;;12.68;7.10;;;;;;;;;;5049309;28;20026;-59
2022/08/24 10:23:43;;;;;;;14.65;7.45;;;;;;;;;;5051011;28;20031;-59
2022/08/24 10:26:31;;;;;;;16.98;7.97;;;;;;;;;;5038410;28;20033;-59
2022/08/24 10:29:06;;;;;;;14.98;7.30;;;;;;;;;;5043506;28;20119;-59
2022/08/24 10:31:39;;;;;;;11.32;6.60;;;;;;;;;;5050616;28;20033;-59
2022/08/24 10:34:05;;;;;;;16.15;6.85;;;;;;;;;;5050383;28;20472;-58
2022/08/24 10:36:41;;;;;;;10.80;6.80;;;;;;;;;;5049722;28;20033;-58
2022/08/24 10:42:02;;;;;;;13.05;6.82;;;;;;;;;;5050865;28;20167;-59
2022/08/24 10:44:44;;;;;;;11.02;6.88;;;;;;;;;;5051126;28;20032;-59
2022/08/24 10:47:12;;;;;;;11.80;6.45;;;;;;;;;;5050786;28;20028;-60
2022/08/24 10:49:56;;;;;;;10.95;6.35;;;;;;;;;;5046598;28;20036;-59
2022/08/24 10:52:38;;;;;;;13.18;7.30;;;;;;;;;;5041807;28;20439;-59
2022/08/24 10:55:15;;;;;;;11.18;6.60;;;;;;;;;;5051610;28;20038;-59
2022/08/24 10:57:58;;;;;;;9.02;6.35;;;;;;;;;;5053907;28;20075;-58
2022/08/24 11:00:27;;;;;;;11.27;6.25;;;;;;;;;;5054255;28;20021;-59
2022/08/24 11:03:05;;;;;;;11.32;5.90;;;;;;;;;;5054814;28;20033;-59
2022/08/24 11:05:35;;;;;;;9.80;6.30;;;;;;;;;;5050103;28;20128;-59
2022/08/24 11:08:05;;;;;;;12.35;6.15;;;;;;;;;;5053569;28;20044;-58
2022/08/24 11:10:36;;;;;;;12.48;6.90;;;;;;;;;;5054000;28;20055;-59
2022/08/24 11:13:17;;;;;;;11.27;5.95;;;;;;;;;;5052247;28;20029;-59
2022/08/24 11:15:48;;;;;;;11.65;6.10;;;;;;;;;;5043303;28;20435;-59
2022/08/24 11:18:14;;;;;;;14.40;7.95;;;;;;;;;;5053364;28;20398;-58
2022/08/24 11:20:41;;;;;;;13.32;6.93;;;;;;;;;;5053454;28;20033;-59
2022/08/24 11:23:08;;;;;;;14.13;7.00;;;;;;;;;;5054212;28;20025;-58
2022/08/24 11:25:36;;;;;;;13.38;6.40;;;;;;;;;;5052458;28;20025;-59
2022/08/24 11:28:04;;;;;;;15.98;6.95;;;;;;;;;;5054152;28;20029;-58
2022/08/24 11:30:31;;;;;;;11.10;6.35;;;;;;;;;;5042974;28;20029;-59
2022/08/24 11:32:59;;;;;;;14.05;7.00;;;;;;;;;;5054022;28;20032;-59
2022/08/24 11:35:28;;;;;;;12.05;6.57;;;;;;;;;;5053141;28;20080;-59
2022/08/24 11:37:56;;;;;;;10.32;6.45;;;;;;;;;;5052644;28;20075;-59
2022/08/24 11:40:26;;;;;;;12.85;7.15;;;;;;;;;;5052565;28;20029;-58
2022/08/24 11:42:52;;;;;;;12.13;6.80;;;;;;;;;;5044341;28;20027;-58
2022/08/24 11:45:18;;;;;;;12.43;6.80;;;;;;;;;;5051477;28;20381;-59
2022/08/24 11:47:55;;;;;;;11.02;6.82;;;;;;;;;;5052279;28;20027;-59
2022/08/24 11:50:24;;;;;;;11.05;6.00;;;;;;;;;;5051470;28;20025;-59
2022/08/24 11:53:10;;;;;;;12.20;6.38;;;;;;;;;;5052888;28;20064;-59
2022/08/24 11:55:46;;;;;;;12.15;6.13;;;;;;;;;;5037452;28;20055;-59
2022/08/24 11:58:35;;;;;;;13.93;5.63;;;;;;;;;;5050211;28;20021;-59
2022/08/24 12:01:15;;;;;;;13.05;5.63;;;;;;;;;;5049910;28;20040;-59
2022/08/24 12:03:46;;;;;;;12.85;4.70;;;;;;;;;;5048301;28;20021;-58
2022/08/24 12:06:38;;;;;;;10.57;4.45;;;;;;;;;;5051304;28;20032;-59
2022/08/24 12:09:24;;;;;;;10.07;3.80;;;;;;;;;;5038111;28;20049;-59
2022/08/24 12:12:09;;;;;;;7.40;3.75;;;;;;;;;;5049189;28;20085;-59
2022/08/24 12:14:48;;;;;;;8.82;4.00;;;;;;;;;;5049758;28;20028;-59
2022/08/24 12:17:24;;;;;;;9.23;4.28;;;;;;;;;;5050024;28;20043;-59
2022/08/24 12:19:56;;;;;;;7.15;3.88;;;;;;;;;;5051592;28;20067;-60
2022/08/24 12:22:23;;;;;;;10.95;4.47;;;;;;;;;;5052885;28;20036;-59
2022/08/24 12:24:53;;;;;;;9.15;4.38;;;;;;;;;;5051327;28;20094;-60
2022/08/24 12:27:29;;;;;;;9.15;4.07;;;;;;;;;;5049489;28;20055;-59
2022/08/24 12:30:01;;;;;;;6.28;3.72;;;;;;;;;;5044181;28;20041;-59
2022/08/24 12:32:36;;;;;;;8.07;3.88;;;;;;;;;;5050627;28;20094;-59
2022/08/24 12:35:09;;;;;;;8.63;4.35;;;;;;;;;;5039622;28;20032;-59
2022/08/24 12:37:43;;;;;;;9.70;4.18;;;;;;;;;;5051296;28;20400;-57
2022/08/24 12:40:22;;;;;;;11.13;3.85;;;;;;;;;;5051378;28;20025;-59
2022/08/24 12:43:00;;;;;;;5.55;2.88;;;;;;;;;;5052866;28;20075;-59
2022/08/24 12:45:26;;;;;;;10.95;3.28;;;;;;;;;;5052196;28;20039;-59
2022/08/24 12:48:18;;;;;;;10.63;3.75;;;;;;;;;;5052667;28;20017;-59
2022/08/24 12:51:03;;;;;;;5.87;2.70;;;;;;;;;;5048123;28;20124;-57
2022/08/24 12:53:51;;;;;;;7.80;3.22;;;;;;;;;;5050057;28;20749;-60
2022/08/24 12:56:25;;;;;;;10.57;3.53;;;;;;;;;;5051968;28;20420;-60
2022/08/24 12:58:57;;;;;;;9.52;3.42;;;;;;;;;;5051357;28;20029;-60
2022/08/24 13:01:23;;;;;;;;;;;;;;;;;;5051489;28;20051;-60
2022/08/24 13:04:03;;;;;;;7.53;2.80;;;;;;;;;;5051884;28;20381;-60
2022/08/24 13:06:40;;;;;;;8.23;3.30;;;;;;;;;;5051989;28;20056;-60
2022/08/24 13:09:10;;;;;;;8.38;3.33;;;;;;;;;;5049278;28;20045;-60
2022/08/24 13:11:37;;;;;;;8.55;3.53;;;;;;;;;;5040802;28;20552;-58
2022/08/24 13:14:03;;;;;;;7.88;3.45;;;;;;;;;;5045837;28;20064;-57
2022/08/24 13:16:47;;;;;;;4.65;3.00;;;;;;;;;;5047284;28;20030;-58
2022/08/24 13:19:32;;;;;;;6.63;2.95;;;;;;;;;;5050635;28;20480;-58
2022/08/24 13:22:11;;;;;;;4.90;2.45;;;;;;;;;;5051828;28;20407;-58
2022/08/24 13:24:41;;;;;;;5.40;3.10;;;;;;;;;;5049229;28;20024;-57
2022/08/24 13:27:14;;;;;;;6.20;2.67;;;;;;;;;;5050659;28;20143;-57
2022/08/24 13:29:42;;;;;;;5.00;3.17;;;;;;;;;;5039464;28;20017;-59
2022/08/24 13:32:12;;;;;;;9.07;3.47;;;;;;;;;;5051581;28;20028;-59
2022/08/24 13:34:43;;;;;;;13.13;3.90;;;;;;;;;;5052228;28;20059;-59
2022/08/24 13:37:17;;;;;;;7.65;3.55;;;;;;;;;;5051616;28;20033;-59
2022/08/24 13:39:49;;;;;;;5.88;3.50;;;;;;;;;;5051645;28;20025;-59
2022/08/24 13:42:20;;;;;;;5.25;3.33;;;;;;;;;;5050379;28;20387;-60
2022/08/24 13:44:52;;;;;;;6.97;2.78;;;;;;;;;;5040773;28;20035;-60
2022/08/24 13:47:22;;;;;;;7.72;3.70;;;;;;;;;;5050854;28;20457;-60
2022/08/24 13:50:00;;;;;;;5.10;3.38;;;;;;;;;;5047791;28;20127;-61
2022/08/24 13:52:45;;;;;;;7.32;3.42;;;;;;;;;;5049859;28;20025;-60
2022/08/24 13:55:31;;;;;;;7.45;3.30;;;;;;;;;;5045355;28;20040;-60
2022/08/24 13:58:09;;;;;;;6.72;3.45;;;;;;;;;;5049703;28;20025;-57
2022/08/24 14:00:44;;;;;;;5.10;2.90;;;;;;;;;;5041349;28;20033;-58
2022/08/24 14:03:26;;;;;;;12.13;3.70;;;;;;;;;;5050992;28;20112;-58
2022/08/24 14:05:55;;;;;;;7.27;3.20;;;;;;;;;;5040034;28;20528;-58
2022/08/24 14:08:28;;;;;;;8.68;3.45;;;;;;;;;;5045635;28;20025;-57
2022/08/24 14:10:57;;;;;;;7.93;2.88;;;;;;;;;;5046565;28;21710;-58
2022/08/24 14:13:43;;;;;;;5.43;2.30;;;;;;;;;;5040530;28;20108;-58
2022/08/24 14:19:34;;;;;;;7.10;2.70;;;;;;;;;;5042412;28;20443;-57
2022/08/24 14:22:10;;;;;;;6.22;2.60;;;;;;;;;;5048145;28;20049;-57
2022/08/24 14:24:55;;;;;;;6.35;3.30;;;;;;;;;;5043076;28;20033;-61
2022/08/24 14:27:33;;;;;;;6.47;3.58;;;;;;;;;;5049742;28;20033;-59
2022/08/24 14:30:17;;;;;;;9.43;3.20;;;;;;;;;;5043420;28;20041;-59
2022/08/24 14:33:03;;;;;;;4.88;2.75;;;;;;;;;;5054242;28;20495;-60
2022/08/24 14:35:42;;;;;;;6.38;2.70;;;;;;;;;;5052114;28;20078;-59
2022/08/24 14:38:14;;;;;;;6.90;2.72;;;;;;;;;;5055533;28;20476;-59
2022/08/24 14:41:06;;;;;;;8.88;3.30;;;;;;;;;;5055648;28;20021;-59
2022/08/24 14:43:42;;;;;;;4.63;2.33;;;;;;;;;;5074356;28;20028;-59
2022/08/24 14:46:13;;;;;;;7.30;2.78;;;;;;;;;;5056130;28;20039;-58
2022/08/24 14:48:47;;;;;;;3.70;2.30;;;;;;;;;;5060483;28;20032;-58
2022/08/24 14:51:19;;;;;;;7.32;3.05;;;;;;;;;;5051187;28;20021;-57
2022/08/24 14:54:04;;;;;;;7.05;2.80;;;;;;;;;;5042491;28;20032;-57
2022/08/24 14:56:39;;;;;;;6.60;2.83;;;;;;;;;;5053360;28;20025;-57
2022/08/24 14:59:17;;;;;;;7.40;2.72;;;;;;;;;;5054910;28;20369;-57
2022/08/24 15:01:44;;;;;;;9.75;3.10;;;;;;;;;;5040950;28;20028;-58
2022/08/24 15:04:31;;;;;;;4.85;3.00;;;;;;;;;;5054320;28;20034;-58
2022/08/24 15:07:17;;;;;;;5.50;2.80;;;;;;;;;;5039669;28;20072;-58